Time;durP1;ratioP1;P1;durP2;ratioP2;P2;SDS_P1;SDS_P2;PMS_P1;PMS_P2;Temp;Humidity;BMP_temperature;BMP_pressure;BME280_temperature;BME280_humidity;BME280_pressure;Samples;Min_cycle;Max_cycle;Signal;HPM_P1;HPM_P2
2023/08/16 00:04:51;;;;;;;19.60;16.67;;;;;;;18.01;88.96;97834.81;10325825;28;20072;-51
2023/08/16 00:09:51;;;;;;;21.10;18.83;;;;;;;17.85;89.44;97837.03;10326111;28;20041;-51
2023/08/16 00:14:50;;;;;;;20.25;18.20;;;;;;;17.72;89.83;97833.84;10329593;28;20065;-50
2023/08/16 00:19:49;;;;;;;21.90;19.48;;;;;;;17.50;90.68;97840.63;10326422;28;20037;-48
2023/08/16 00:24:48;;;;;;;22.73;20.35;;;;;;;17.39;90.83;97838.28;10325126;28;20021;-48
2023/08/16 00:29:47;;;;;;;24.77;20.20;;;;;;;17.46;90.50;97839.81;10325678;28;20108;-49
2023/08/16 00:34:46;;;;;;;23.27;20.70;;;;;;;17.48;90.26;97838.03;10325753;28;20033;-51
2023/08/16 00:39:49;;;;;;;24.92;21.08;;;;;;;17.49;90.41;97828.38;10326887;28;20037;-50
2023/08/16 00:44:49;;;;;;;27.23;20.80;;;;;;;17.40;90.20;97839.97;10324213;28;20661;-52
2023/08/16 00:49:49;;;;;;;23.80;20.92;;;;;;;17.41;90.25;97844.34;10321567;28;20477;-53
2023/08/16 00:54:48;;;;;;;22.55;19.98;;;;;;;17.41;90.46;97830.38;10329081;28;20063;-52
2023/08/16 00:59:47;;;;;;;22.92;19.83;;;;;;;17.47;90.42;97836.31;10326723;28;20032;-51
2023/08/16 01:04:47;;;;;;;24.45;20.10;;;;;;;17.50;90.66;97838.00;10324850;28;20167;-52
2023/08/16 01:09:46;;;;;;;24.20;19.80;;;;;;;17.54;90.41;97826.47;10323425;28;20129;-52
2023/08/16 01:14:56;;;;;;;23.58;20.48;;;;;;;17.60;90.42;97826.31;10326023;28;20068;-51
2023/08/16 01:19:57;;;;;;;23.55;19.92;;;;;;;17.46;90.50;97795.22;10324360;28;20128;-51
2023/08/16 01:25:16;;;;;;;22.92;20.10;;;;;;;17.67;90.52;97832.28;10325150;28;20518;-51
2023/08/16 01:30:15;;;;;;;21.52;19.33;;;;;;;17.70;90.38;97825.16;10323261;28;20056;-48
2023/08/16 01:35:15;;;;;;;21.23;19.02;;;;;;;17.36;90.33;97764.91;10320668;28;20057;-49
2023/08/16 01:40:15;;;;;;;22.90;20.50;;;;;;;17.71;90.25;97813.75;10324618;28;20076;-51
2023/08/16 01:45:17;;;;;;;23.10;19.20;;;;;;;17.67;90.06;97806.88;10322363;28;20076;-51
2023/08/16 01:50:16;;;;;;;22.13;19.08;;;;;;;17.59;90.24;97808.88;10322606;28;20112;-51
2023/08/16 01:55:15;;;;;;;21.40;18.50;;;;;;;17.56;90.16;97803.69;10324837;28;20064;-48
2023/08/16 02:00:15;;;;;;;25.23;20.20;;;;;;;17.26;90.28;97780.06;10320005;28;20132;-50
2023/08/16 02:05:14;;;;;;;24.20;21.23;;;;;;;17.30;90.38;97812.28;10322888;28;20061;-50
2023/08/16 02:10:13;;;;;;;24.95;20.00;;;;;;;17.29;90.31;97806.19;10319287;28;20029;-51
2023/08/16 02:15:13;;;;;;;26.00;21.83;;;;;;;17.24;90.68;97813.34;10321979;28;20064;-49
2023/08/16 02:20:12;;;;;;;22.90;20.50;;;;;;;17.20;90.80;97805.59;10323927;28;20124;-51
2023/08/16 02:25:11;;;;;;;29.48;22.65;;;;;;;17.12;91.10;97798.78;10320985;28;20053;-50
2023/08/16 02:30:10;;;;;;;25.63;22.48;;;;;;;17.08;91.47;97797.13;10322499;28;20479;-50
2023/08/16 02:35:09;;;;;;;25.95;22.40;;;;;;;16.92;91.33;97772.22;10321688;28;20068;-52
2023/08/16 02:40:09;;;;;;;25.52;22.20;;;;;;;17.06;91.23;97798.09;10322416;28;20124;-51
2023/08/16 02:45:08;;;;;;;27.20;22.00;;;;;;;17.04;91.35;97800.72;10321942;28;20141;-49
2023/08/16 02:50:08;;;;;;;27.45;23.52;;;;;;;16.73;91.62;97761.31;10333826;28;20072;-48
2023/08/16 02:55:08;;;;;;;28.77;24.33;;;;;;;16.61;92.31;97764.25;10329940;28;20076;-49
2023/08/16 03:00:09;;;;;;;28.67;23.90;;;;;;;17.00;92.24;97811.34;10328393;28;20124;-51
2023/08/16 03:05:09;;;;;;;29.05;25.63;;;;;;;17.06;92.53;97812.03;10328272;28;20072;-50
2023/08/16 03:10:08;;;;;;;28.92;24.35;;;;;;;17.10;92.29;97816.31;10330078;28;20076;-52
2023/08/16 03:15:08;;;;;;;27.38;23.17;;;;;;;17.08;92.27;97819.88;10328658;28;20064;-49
2023/08/16 03:20:09;;;;;;;27.48;22.83;;;;;;;16.81;92.11;97769.88;10326240;28;20112;-50
2023/08/16 03:25:08;;;;;;;27.83;23.27;;;;;;;17.03;92.22;97806.03;10328038;28;20480;-48
2023/08/16 03:30:08;;;;;;;25.27;22.42;;;;;;;17.00;92.16;97798.22;10326524;28;20056;-52
2023/08/16 03:35:07;;;;;;;29.30;24.20;;;;;;;16.96;92.08;97797.47;10327879;28;20057;-49
2023/08/16 03:40:07;;;;;;;27.20;22.80;;;;;;;16.96;91.91;97796.56;10329124;28;20500;-52
2023/08/16 03:45:06;;;;;;;25.00;22.00;;;;;;;16.90;92.06;97790.59;10328464;28;20099;-49
2023/08/16 03:50:05;;;;;;;29.45;23.38;;;;;;;16.90;91.88;97785.34;10327269;28;20120;-49
2023/08/16 03:55:05;;;;;;;27.55;23.95;;;;;;;16.88;92.05;97800.25;10325548;28;20054;-50
2023/08/16 04:00:11;;;;;;;28.33;24.02;;;;;;;16.66;93.65;97809.56;10326190;28;20500;-50
2023/08/16 04:05:12;;;;;;;27.85;23.92;;;;;;;16.72;92.97;97801.50;10325802;28;20073;-51
2023/08/16 04:10:11;;;;;;;26.10;22.42;;;;;;;16.76;92.90;97805.78;10330126;28;20065;-52
2023/08/16 04:15:10;;;;;;;32.65;24.48;;;;;;;16.79;92.50;97815.34;10325315;28;20061;-48
2023/08/16 04:20:10;;;;;;;30.88;24.00;;;;;;;16.85;92.32;97818.69;10325716;28;20128;-48
2023/08/16 04:25:09;;;;;;;34.25;24.83;;;;;;;16.94;92.17;97815.00;10326627;28;20124;-51
2023/08/16 04:30:10;;;;;;;39.25;27.05;;;;;;;17.04;92.07;97810.38;10324978;28;20041;-49
2023/08/16 04:35:09;;;;;;;36.38;26.35;;;;;;;17.15;91.89;97810.94;10324599;28;20063;-49
2023/08/16 04:40:08;;;;;;;31.33;24.85;;;;;;;17.28;91.60;97820.19;10325688;28;20125;-52
2023/08/16 04:45:08;;;;;;;31.98;27.20;;;;;;;17.42;91.58;97817.19;10323436;28;20115;-50
2023/08/16 04:50:07;;;;;;;32.75;26.27;;;;;;;17.54;91.38;97814.25;10326459;28;20084;-49
2023/08/16 04:55:07;;;;;;;27.02;21.55;;;;;;;17.50;90.81;97814.38;10324753;28;20538;-50
2023/08/16 05:00:08;;;;;;;23.95;19.95;;;;;;;17.26;91.57;97811.53;10325488;28;20145;-48
2023/08/16 05:05:07;;;;;;;23.67;19.50;;;;;;;17.20;91.64;97806.44;10318837;28;20069;-51
2023/08/16 05:10:07;;;;;;;25.52;19.23;;;;;;;17.32;91.39;97816.59;10322295;28;20064;-51
2023/08/16 05:15:06;;;;;;;23.13;20.60;;;;;;;17.38;91.61;97827.81;10322568;28;20132;-51
2023/08/16 05:20:06;;;;;;;23.42;20.00;;;;;;;17.43;92.01;97826.81;10321803;28;20116;-50
2023/08/16 05:25:06;;;;;;;23.45;20.27;;;;;;;17.71;91.86;97824.25;10322907;28;20120;-51
2023/08/16 05:30:05;;;;;;;20.05;17.10;;;;;;;18.03;91.43;97826.88;10322895;28;20120;-52
2023/08/16 05:35:05;;;;;;;21.92;19.48;;;;;;;18.26;89.89;97829.66;10321647;28;20514;-50
2023/08/16 05:40:05;;;;;;;55.65;21.77;;;;;;;18.31;89.70;97835.63;10321400;28;20116;-49
2023/08/16 05:45:05;;;;;;;22.27;19.05;;;;;;;18.60;88.70;97826.00;10320449;28;20150;-52
2023/08/16 05:50:05;;;;;;;24.05;19.73;;;;;;;18.65;88.03;97824.06;10322137;28;20049;-50
2023/08/16 05:55:04;;;;;;;24.10;19.30;;;;;;;18.77;87.78;97828.09;10323405;28;20057;-52
2023/08/16 06:00:04;;;;;;;22.20;19.05;;;;;;;18.98;87.59;97816.88;10336684;28;20132;-50
2023/08/16 06:05:04;;;;;;;21.67;19.17;;;;;;;19.00;86.23;97780.84;10322207;28;20095;-51
2023/08/16 06:10:05;;;;;;;20.35;18.13;;;;;;;19.48;85.32;97815.16;10323544;28;20069;-50
2023/08/16 06:15:11;;;;;;;20.70;18.50;;;;;;;19.59;84.32;97791.97;10320653;28;20116;-50
2023/08/16 06:20:10;;;;;;;18.90;16.63;;;;;;;19.85;83.19;97801.53;10324274;28;20140;-50
2023/08/16 06:25:09;;;;;;;18.17;16.23;;;;;;;20.08;81.78;97793.59;10328016;28;20068;-51
2023/08/16 06:30:09;;;;;;;20.95;17.58;;;;;;;20.36;80.36;97807.50;10328727;28;20112;-51
2023/08/16 06:35:09;;;;;;;18.52;16.30;;;;;;;20.46;79.70;97808.84;10329174;28;20465;-51
2023/08/16 06:40:09;;;;;;;18.27;16.23;;;;;;;20.61;78.34;97807.38;10331327;28;20116;-50
2023/08/16 06:45:09;;;;;;;50.08;18.52;;;;;;;20.68;78.73;97788.63;10330593;28;20065;-49
2023/08/16 06:50:08;;;;;;;18.10;15.55;;;;;;;20.77;77.13;97746.94;10328165;28;20072;-51
2023/08/16 06:55:07;;;;;;;20.52;14.93;;;;;;;21.27;75.75;97796.75;10329790;28;20480;-51
2023/08/16 07:00:08;;;;;;;17.23;14.20;;;;;;;20.42;73.97;97599.03;10328516;28;20151;-50
2023/08/16 07:05:08;;;;;;;15.63;14.00;;;;;;;21.92;72.74;97792.03;10329205;28;20064;-51
2023/08/16 07:10:07;;;;;;;17.85;14.40;;;;;;;22.31;71.73;97777.91;10329647;28;20124;-51
2023/08/16 07:15:06;;;;;;;18.63;14.30;;;;;;;23.16;70.69;97793.13;10322895;28;20797;-51
2023/08/16 07:20:10;;;;;;;12.75;11.23;;;;;;;23.51;63.78;97777.22;10328481;28;20866;-52
2023/08/16 07:25:10;;;;;;;18.13;12.38;;;;;;;23.94;62.26;97754.56;10327507;28;20535;-50
2023/08/16 07:30:09;;;;;;;15.55;12.10;;;;;;;24.36;61.19;97779.66;10326266;28;20489;-50
2023/08/16 07:35:09;;;;;;;15.20;12.68;;;;;;;24.37;59.27;97772.56;10324515;28;20056;-51
2023/08/16 07:40:09;;;;;;;13.27;11.15;;;;;;;24.45;58.71;97771.19;10339890;28;20068;-53
2023/08/16 07:45:08;;;;;;;15.50;12.48;;;;;;;24.84;58.86;97774.25;10325624;28;20135;-52
2023/08/16 07:50:08;;;;;;;13.25;10.82;;;;;;;25.17;59.13;97762.63;10324745;28;20053;-52
2023/08/16 07:55:08;;;;;;;14.90;11.95;;;;;;;25.10;56.76;97767.44;10324362;28;20053;-50
2023/08/16 08:00:11;;;;;;;12.82;10.63;;;;;;;25.04;56.87;97743.94;10327475;28;20080;-51
2023/08/16 08:05:10;;;;;;;13.93;11.55;;;;;;;25.23;57.31;97771.06;10325665;28;20544;-51
2023/08/16 08:10:10;;;;;;;14.02;11.35;;;;;;;25.66;56.71;97760.50;10325536;28;20469;-52
2023/08/16 08:15:09;;;;;;;12.05;10.70;;;;;;;25.93;56.04;97746.44;10327513;28;20072;-52
2023/08/16 08:20:08;;;;;;;12.25;10.63;;;;;;;25.85;54.28;97770.81;10326902;28;20156;-52
2023/08/16 08:25:08;;;;;;;11.95;10.73;;;;;;;25.99;54.79;97767.28;10323464;28;20484;-52
2023/08/16 08:30:08;;;;;;;20.33;10.90;;;;;;;26.39;54.17;97775.41;10318368;28;20145;-50
2023/08/16 08:35:07;;;;;;;14.18;10.18;;;;;;;26.93;52.87;97764.78;10324003;28;20060;-52
2023/08/16 08:40:06;;;;;;;12.70;10.25;;;;;;;27.20;51.28;97766.50;10323014;28;20151;-51
2023/08/16 08:45:06;;;;;;;12.45;10.77;;;;;;;26.60;52.15;97765.16;10323868;28;20112;-53
2023/08/16 08:50:06;;;;;;;12.63;9.57;;;;;;;26.24;52.36;97643.41;10326158;28;20540;-51
2023/08/16 08:55:05;;;;;;;11.48;9.98;;;;;;;27.27;50.79;97750.97;10325159;28;20124;-52
2023/08/16 09:00:06;;;;;;;13.32;9.52;;;;;;;27.75;49.92;97752.03;10326603;28;20121;-52
2023/08/16 09:05:09;;;;;;;11.70;8.82;;;;;;;27.61;49.26;97755.69;10327338;28;20116;-51
2023/08/16 09:10:09;;;;;;;11.02;9.55;;;;;;;27.55;49.83;97757.91;10328693;28;20069;-51
2023/08/16 09:15:09;;;;;;;11.65;9.23;;;;;;;26.90;50.75;97719.69;10323934;28;20064;-51
2023/08/16 09:20:08;;;;;;;13.85;9.65;;;;;;;26.93;50.88;97742.59;10319462;28;20148;-50
2023/08/16 09:25:10;;;;;;;12.60;9.30;;;;;;;26.61;51.63;97753.56;10324187;28;20487;-49
2023/08/16 09:30:13;;;;;;;12.45;9.75;;;;;;;26.48;53.04;97758.00;10322816;28;20489;-52
2023/08/16 09:35:16;;;;;;;11.57;8.75;;;;;;;26.37;53.17;97764.03;10330035;28;20065;-52
2023/08/16 09:40:15;;;;;;;14.77;9.75;;;;;;;26.19;53.37;97768.69;10325179;28;20053;-52
2023/08/16 09:45:14;;;;;;;11.55;9.45;;;;;;;26.41;52.79;97767.34;10321138;28;20125;-52
2023/08/16 09:50:17;;;;;;;12.15;9.32;;;;;;;26.75;51.81;97763.31;10324983;28;20056;-53
2023/08/16 09:55:29;;;;;;;11.18;8.73;;;;;;;26.36;52.56;97776.47;10322603;28;20430;-51
2023/08/16 10:00:30;;;;;;;10.93;8.50;;;;;;;26.21;53.03;97776.63;10321697;28;20491;-51
2023/08/16 10:05:29;;;;;;;11.75;9.30;;;;;;;26.12;54.02;97780.69;10322016;28;20266;-50
2023/08/16 10:10:30;;;;;;;10.90;9.48;;;;;;;25.92;54.40;97781.94;10318022;28;20171;-52
2023/08/16 10:15:32;;;;;;;12.23;9.57;;;;;;;25.91;54.60;97785.56;10320785;28;20664;-52
2023/08/16 10:20:34;;;;;;;15.23;10.93;;;;;;;25.67;55.37;97787.94;10320740;28;20156;-51
2023/08/16 10:25:47;;;;;;;15.13;10.07;;;;;;;25.74;55.14;97794.59;10319469;28;20144;-50
2023/08/16 10:45:56;;;;;;;;;;;;;;;25.01;58.25;97799.84;10528655;27;20470;-55
2023/08/16 10:50:58;;;;;;;11.95;9.57;;;;;;;25.28;57.48;97802.66;10504945;28;20057;-55
2023/08/16 10:55:57;;;;;;;12.20;10.68;;;;;;;25.24;57.43;97801.97;10489336;28;20060;-56
2023/08/16 11:01:04;;;;;;;12.82;10.77;;;;;;;25.07;57.92;97810.13;10494670;28;20058;-56
2023/08/16 11:06:11;;;;;;;11.50;10.27;;;;;;;25.11;58.03;97790.41;10488392;28;20060;-55
2023/08/16 11:11:14;;;;;;;11.23;10.03;;;;;;;25.06;58.03;97785.38;10489304;28;20058;-55
2023/08/16 11:16:13;;;;;;;14.60;10.48;;;;;;;25.15;58.07;97810.50;10489477;28;21608;-56
2023/08/16 11:21:13;;;;;;;12.43;11.20;;;;;;;25.21;57.70;97814.59;10489276;28;20055;-60
2023/08/16 11:26:12;;;;;;;13.75;11.52;;;;;;;25.11;57.53;97793.91;10489446;28;20074;-56
2023/08/16 11:31:12;;;;;;;13.23;10.55;;;;;;;25.03;57.70;97766.09;10489024;28;20023;-55
2023/08/16 11:36:13;;;;;;;12.40;10.93;;;;;;;25.68;56.64;97817.06;10488762;28;20082;-56
2023/08/16 11:41:14;;;;;;;12.60;10.70;;;;;;;25.90;55.28;97810.41;10490823;28;20085;-56
2023/08/16 11:46:13;;;;;;;13.90;10.30;;;;;;;26.30;54.91;97797.28;10463972;28;20071;-56
2023/08/16 11:51:12;;;;;;;10.98;9.80;;;;;;;26.92;52.50;97784.34;10462972;28;20028;-56
2023/08/16 11:56:12;;;;;;;12.77;10.95;;;;;;;27.30;52.72;97804.88;10460631;28;20071;-56
2023/08/16 12:01:15;;;;;;;12.60;10.60;;;;;;;27.46;51.14;97793.16;10458532;28;20510;-56
2023/08/16 12:06:16;;;;;;;11.70;10.32;;;;;;;27.66;50.74;97779.34;10457329;28;20051;-56
2023/08/16 12:11:26;;;;;;;16.02;10.38;;;;;;;28.31;49.63;97782.75;10457827;28;20127;-56
2023/08/16 12:16:25;;;;;;;12.70;9.75;;;;;;;28.73;49.36;97781.44;10465718;28;20063;-56
2023/08/16 12:21:24;;;;;;;11.88;10.18;;;;;;;29.04;48.33;97779.09;10457081;28;20741;-56
2023/08/16 12:26:23;;;;;;;11.25;9.50;;;;;;;29.39;46.69;97776.47;10456938;28;20061;-56
2023/08/16 12:31:22;;;;;;;12.10;9.63;;;;;;;29.61;44.96;97762.25;10450487;28;20016;-56
2023/08/16 12:36:21;;;;;;;12.93;10.25;;;;;;;29.83;44.68;97777.44;10441651;28;20040;-55
2023/08/16 12:41:20;;;;;;;12.52;9.75;;;;;;;29.87;43.89;97770.06;10461236;28;20032;-55
2023/08/16 12:46:19;;;;;;;11.20;10.00;;;;;;;29.72;44.18;97766.75;10487143;28;20059;-56
2023/08/16 12:51:18;;;;;;;12.32;9.90;;;;;;;29.64;44.48;97767.34;10470930;28;20032;-56
2023/08/16 12:56:17;;;;;;;14.57;10.30;;;;;;;29.92;45.70;97765.19;10474946;28;20560;-55
2023/08/16 13:01:16;;;;;;;11.35;10.15;;;;;;;30.29;43.47;97759.56;10460529;28;20406;-56
2023/08/16 13:06:16;;;;;;;16.10;10.65;;;;;;;30.58;43.33;97761.69;10459818;28;20024;-56
2023/08/16 13:11:15;;;;;;;10.98;9.73;;;;;;;30.50;42.38;97759.66;10447278;28;20104;-55
2023/08/16 13:16:14;;;;;;;12.20;10.57;;;;;;;30.12;43.95;97755.56;10443526;28;20359;-56
2023/08/16 13:21:13;;;;;;;13.32;10.50;;;;;;;29.96;43.98;97763.13;10430329;28;20048;-55
2023/08/16 13:26:12;;;;;;;14.13;10.18;;;;;;;29.24;43.95;97689.41;10429547;28;20051;-55
2023/08/16 13:31:11;;;;;;;12.75;10.40;;;;;;;29.13;45.76;97756.19;10441881;28;20054;-56
2023/08/16 13:36:10;;;;;;;11.88;9.73;;;;;;;28.81;46.25;97746.16;10442139;28;20091;-56
2023/08/16 13:41:09;;;;;;;15.30;11.00;;;;;;;28.66;46.07;97706.25;10440866;28;20512;-56
2023/08/16 13:46:08;;;;;;;17.10;10.68;;;;;;;28.97;46.16;97725.31;10449191;28;20107;-55
2023/08/16 13:51:09;;;;;;;12.35;10.48;;;;;;;29.26;45.77;97759.66;10448156;28;20027;-56
2023/08/16 13:56:08;;;;;;;13.93;10.27;;;;;;;29.53;45.63;97748.63;10434888;28;20064;-56
2023/08/16 14:01:07;;;;;;;16.80;10.38;;;;;;;29.80;44.69;97734.88;10442826;28;20034;-56
2023/08/16 14:06:06;;;;;;;48.45;13.60;;;;;;;30.23;44.62;97750.19;10434409;28;20059;-55
2023/08/16 14:11:05;;;;;;;11.77;10.23;;;;;;;30.38;43.89;97744.56;10441088;28;20074;-56
2023/08/16 14:16:04;;;;;;;27.42;11.48;;;;;;;30.58;42.85;97734.91;10448352;28;20063;-56
2023/08/16 14:21:04;;;;;;;14.63;9.95;;;;;;;30.49;42.88;97725.78;10446393;28;20084;-56
2023/08/16 14:26:03;;;;;;;28.50;11.13;;;;;;;30.36;43.18;97711.72;10446040;28;20062;-56
2023/08/16 14:31:02;;;;;;;22.83;10.20;;;;;;;30.52;42.89;97720.22;10454467;28;20043;-56
2023/08/16 14:36:01;;;;;;;26.33;11.73;;;;;;;30.69;43.33;97722.31;10443895;28;20557;-55
2023/08/16 14:41:00;;;;;;;12.60;9.73;;;;;;;30.68;42.63;97731.34;10466028;28;20074;-55
2023/08/16 14:45:59;;;;;;;13.68;10.38;;;;;;;30.80;42.56;97736.66;10448759;28;20027;-55
2023/08/16 14:50:58;;;;;;;15.98;9.70;;;;;;;30.44;42.67;97677.97;10452536;28;20502;-55
2023/08/16 14:55:57;;;;;;;12.90;10.02;;;;;;;30.52;42.62;97729.09;10453865;28;20107;-55
2023/08/16 15:00:56;;;;;;;12.27;10.35;;;;;;;29.89;43.20;97723.47;10444471;28;20036;-56
2023/08/16 15:05:55;;;;;;;12.85;9.43;;;;;;;29.68;44.08;97731.38;10452712;28;20603;-56
2023/08/16 15:10:58;;;;;;;12.35;10.05;;;;;;;29.78;44.52;97739.50;10434927;28;20053;-55
2023/08/16 15:15:57;;;;;;;12.48;10.48;;;;;;;29.67;44.62;97739.50;10452816;28;20071;-55
2023/08/16 15:20:56;;;;;;;11.70;10.23;;;;;;;29.60;44.44;97727.59;10456575;28;20151;-55
2023/08/16 15:25:57;;;;;;;12.02;9.88;;;;;;;29.32;45.73;97724.44;10492063;27;20058;-55
2023/08/16 15:30:56;;;;;;;13.18;11.32;;;;;;;29.23;45.99;97706.41;10459863;28;20426;-55
2023/08/16 15:35:55;;;;;;;12.77;9.93;;;;;;;28.82;45.50;97615.16;10464312;28;20040;-55
2023/08/16 15:40:56;;;;;;;13.73;10.15;;;;;;;29.23;45.98;97711.75;10490218;28;20055;-56
2023/08/16 15:45:55;;;;;;;14.40;9.60;;;;;;;28.95;46.52;97708.56;10466446;28;20055;-55
2023/08/16 15:50:55;;;;;;;13.32;12.02;;;;;;;28.61;47.24;97694.19;10455776;28;20032;-55
2023/08/16 15:55:54;;;;;;;14.63;12.02;;;;;;;28.63;47.53;97710.97;10454590;28;20082;-55
2023/08/16 16:00:58;;;;;;;16.15;11.40;;;;;;;28.47;47.79;97713.94;10458345;28;20110;-55
2023/08/16 16:05:58;;;;;;;13.05;10.45;;;;;;;28.34;47.73;97703.31;10457859;28;20055;-55
2023/08/16 16:10:58;;;;;;;15.52;10.40;;;;;;;28.14;48.22;97715.47;10457691;28;20063;-55
2023/08/16 16:15:57;;;;;;;13.82;11.73;;;;;;;28.05;49.37;97700.94;10457928;28;20055;-55
2023/08/16 16:20:56;;;;;;;17.45;11.35;;;;;;;28.01;49.00;97698.63;10442336;28;20063;-56
2023/08/16 16:25:56;;;;;;;13.43;10.45;;;;;;;27.82;49.11;97683.97;10444575;28;20068;-55
2023/08/16 16:30:55;;;;;;;15.48;10.98;;;;;;;27.92;49.40;97691.31;10452772;28;20063;-55
2023/08/16 16:35:54;;;;;;;15.93;12.13;;;;;;;27.73;50.00;97654.44;10459458;28;20067;-54
2023/08/16 16:40:53;;;;;;;13.80;10.43;;;;;;;27.88;50.44;97693.31;10459762;28;20097;-54
2023/08/16 16:45:52;;;;;;;16.80;11.50;;;;;;;27.62;50.96;97660.56;10455190;28;20060;-55
2023/08/16 16:50:51;;;;;;;15.48;13.82;;;;;;;27.46;51.35;97687.44;10459549;28;20032;-55
2023/08/16 16:55:51;;;;;;;17.08;13.43;;;;;;;27.02;52.65;97667.41;10459483;28;20060;-55
2023/08/16 17:00:50;;;;;;;18.55;15.02;;;;;;;26.95;53.80;97682.09;10460212;28;20059;-55
2023/08/16 17:05:48;;;;;;;19.65;13.75;;;;;;;26.68;54.94;97692.81;10460679;28;20027;-54
2023/08/16 17:10:47;;;;;;;15.10;12.38;;;;;;;26.42;56.00;97698.06;10459997;28;20118;-54
2023/08/16 17:15:46;;;;;;;18.27;14.07;;;;;;;26.07;56.62;97689.72;10457581;28;20062;-56
2023/08/16 17:20:45;;;;;;;24.35;17.67;;;;;;;25.60;57.78;97664.34;10458614;28;20071;-56
2023/08/16 17:25:44;;;;;;;22.75;16.42;;;;;;;25.66;59.24;97701.19;10458302;28;20056;-55
2023/08/16 17:30:47;;;;;;;20.27;17.10;;;;;;;25.47;59.83;97704.09;10459015;28;20040;-55
2023/08/16 17:35:46;;;;;;;21.40;17.83;;;;;;;25.33;61.17;97711.13;10457152;28;20059;-55
2023/08/16 17:40:45;;;;;;;25.13;16.83;;;;;;;25.17;62.48;97715.66;10456150;28;20028;-55
2023/08/16 17:45:44;;;;;;;20.05;15.68;;;;;;;25.00;63.14;97719.34;10454798;28;20633;-55
2023/08/16 17:50:43;;;;;;;19.65;15.85;;;;;;;24.85;63.52;97726.41;10456153;28;20612;-55
2023/08/16 17:55:42;;;;;;;18.85;16.00;;;;;;;24.67;64.38;97727.50;10456520;28;20112;-55
2023/08/16 18:00:41;;;;;;;23.00;15.93;;;;;;;24.56;64.90;97733.41;10455917;28;20042;-55
2023/08/16 18:05:41;;;;;;;24.90;18.60;;;;;;;24.45;65.74;97733.16;10456349;28;20458;-55
2023/08/16 18:10:40;;;;;;;24.25;17.75;;;;;;;24.27;67.08;97730.63;10456401;28;20068;-55
2023/08/16 18:15:39;;;;;;;27.23;17.33;;;;;;;23.94;67.62;97717.47;10455122;28;20032;-55
2023/08/16 18:20:38;;;;;;;19.58;15.65;;;;;;;24.01;68.15;97744.50;10454003;28;20036;-56
2023/08/16 18:25:36;;;;;;;21.17;16.95;;;;;;;23.88;68.83;97754.91;10441042;28;20579;-56
2023/08/16 18:30:35;;;;;;;18.95;16.05;;;;;;;23.66;69.80;97759.69;10445421;28;20035;-55
2023/08/16 18:35:34;;;;;;;17.65;15.27;;;;;;;23.49;70.49;97757.91;10444954;28;20053;-54
2023/08/16 18:40:33;;;;;;;17.00;15.18;;;;;;;23.11;71.66;97711.31;10444868;28;20032;-54
2023/08/16 18:45:32;;;;;;;18.58;16.45;;;;;;;23.13;72.24;97748.28;10444740;28;20526;-54
2023/08/16 18:50:31;;;;;;;19.55;15.45;;;;;;;22.74;72.64;97700.00;10445095;28;20545;-54
2023/08/16 18:55:30;;;;;;;17.98;16.20;;;;;;;22.92;73.23;97766.13;10450493;28;20020;-54
2023/08/16 19:00:29;;;;;;;18.77;15.75;;;;;;;22.85;73.77;97752.34;10454300;28;20441;-55
2023/08/16 19:05:28;;;;;;;18.77;16.33;;;;;;;22.75;75.02;97759.91;10453815;28;20035;-55
2023/08/16 19:10:28;;;;;;;19.42;16.83;;;;;;;22.74;75.32;97766.13;10454107;28;20107;-55
2023/08/16 19:15:27;;;;;;;20.75;16.40;;;;;;;22.73;75.07;97763.53;10453391;28;20051;-55
2023/08/16 19:20:26;;;;;;;22.30;17.70;;;;;;;22.66;76.06;97773.56;10453254;28;20036;-55
2023/08/16 19:25:27;;;;;;;18.67;16.73;;;;;;;22.52;76.04;97762.81;10453000;28;20474;-55
2023/08/16 19:30:26;;;;;;;19.95;17.45;;;;;;;22.45;76.25;97779.91;10451070;28;20068;-55
2023/08/16 19:35:26;;;;;;;20.98;18.45;;;;;;;22.41;76.75;97778.31;10452181;28;20019;-56
2023/08/16 19:40:25;;;;;;;26.67;19.75;;;;;;;22.34;77.77;97781.28;10456564;28;20063;-56
2023/08/16 19:45:24;;;;;;;23.73;19.90;;;;;;;22.29;78.64;97780.63;10453731;28;20032;-55
2023/08/16 19:50:23;;;;;;;21.52;19.30;;;;;;;22.24;79.08;97773.84;10456472;28;20046;-55
2023/08/16 19:55:22;;;;;;;24.75;19.73;;;;;;;22.12;79.77;97762.09;10454771;28;20052;-56
2023/08/16 20:00:26;;;;;;;25.83;19.52;;;;;;;22.10;79.89;97761.28;10455385;28;20024;-56
2023/08/16 20:05:25;;;;;;;22.38;18.60;;;;;;;21.99;80.22;97766.22;10455265;28;20059;-53
2023/08/16 20:10:24;;;;;;;21.10;18.50;;;;;;;21.75;80.69;97747.91;10454089;28;20036;-53
2023/08/16 20:15:23;;;;;;;22.63;19.42;;;;;;;21.91;80.50;97762.13;10453118;28;20034;-56
2023/08/16 20:20:22;;;;;;;20.52;18.45;;;;;;;21.88;80.79;97757.00;10455666;28;20020;-53
2023/08/16 20:25:21;;;;;;;20.35;17.75;;;;;;;21.32;82.48;97678.63;10454683;28;20051;-55
2023/08/16 20:30:20;;;;;;;22.08;18.73;;;;;;;21.66;82.85;97750.97;10454889;28;20111;-56
2023/08/16 20:35:20;;;;;;;23.95;19.13;;;;;;;21.59;83.56;97753.03;10451770;28;20111;-53
2023/08/16 20:40:19;;;;;;;28.33;18.70;;;;;;;21.59;83.93;97760.13;10450547;28;20105;-55
2023/08/16 20:45:18;;;;;;;21.65;18.75;;;;;;;21.62;83.48;97749.44;10449209;28;20166;-55
2023/08/16 20:50:17;;;;;;;23.98;20.80;;;;;;;21.69;83.63;97753.50;10450499;28;20069;-56
2023/08/16 20:55:16;;;;;;;24.58;20.40;;;;;;;21.67;83.62;97734.22;10449086;28;20533;-55
2023/08/16 21:00:15;;;;;;;22.45;19.98;;;;;;;21.60;83.46;97728.38;10449284;28;20043;-55
2023/08/16 21:05:13;;;;;;;22.15;19.88;;;;;;;21.79;83.18;97752.16;10449630;28;20876;-55
2023/08/16 21:10:12;;;;;;;23.40;20.95;;;;;;;21.75;83.20;97747.91;10449065;28;20119;-55
2023/08/16 21:15:11;;;;;;;24.65;20.52;;;;;;;21.71;83.41;97757.78;10448415;28;20034;-55
2023/08/16 21:20:11;;;;;;;22.95;20.48;;;;;;;21.79;83.02;97756.56;10449460;28;20132;-55
2023/08/16 21:25:10;;;;;;;22.75;20.45;;;;;;;21.84;82.71;97760.72;10448615;28;20044;-55
2023/08/16 21:30:09;;;;;;;23.80;19.55;;;;;;;21.81;82.96;97752.94;10448546;28;20024;-55
2023/08/16 21:35:08;;;;;;;22.42;20.05;;;;;;;21.52;82.96;97688.25;10448119;28;20489;-55
2023/08/16 21:40:07;;;;;;;24.13;20.42;;;;;;;21.72;83.25;97748.06;10447892;28;20426;-55
2023/08/16 21:45:09;;;;;;;24.13;20.35;;;;;;;21.45;84.42;97758.09;10448109;28;20068;-55
2023/08/16 21:50:08;;;;;;;23.15;20.17;;;;;;;21.39;84.57;97747.81;10448381;28;20127;-55
2023/08/16 21:55:07;;;;;;;23.90;21.48;;;;;;;21.33;84.56;97757.72;10447045;28;20103;-55
2023/08/16 22:00:07;;;;;;;22.73;20.33;;;;;;;21.20;84.81;97755.69;10447037;28;20118;-55
2023/08/16 22:05:07;;;;;;;22.33;20.08;;;;;;;20.87;85.22;97722.78;10446913;28;20052;-55
2023/08/16 22:10:07;;;;;;;23.90;20.58;;;;;;;20.43;85.60;97658.75;10443034;28;20503;-55
2023/08/16 22:15:07;;;;;;;24.25;21.73;;;;;;;21.00;85.87;97767.06;10443076;28;20115;-55
2023/08/16 22:20:07;;;;;;;26.00;23.40;;;;;;;20.95;86.18;97762.00;10442567;28;20074;-55
2023/08/16 22:25:06;;;;;;;24.50;21.90;;;;;;;20.69;86.12;97729.69;10443035;28;20089;-55
2023/08/16 22:30:06;;;;;;;25.38;22.67;;;;;;;20.83;86.58;97763.38;10445855;28;20060;-55
2023/08/16 22:35:05;;;;;;;26.58;22.27;;;;;;;20.80;86.50;97763.53;10448964;28;20047;-55
2023/08/16 22:40:05;;;;;;;25.75;23.08;;;;;;;20.78;86.42;97760.09;10448009;28;20064;-55
2023/08/16 22:45:05;;;;;;;25.67;22.92;;;;;;;20.57;87.01;97729.34;10449244;28;20059;-55
2023/08/16 22:50:04;;;;;;;24.95;22.38;;;;;;;20.62;87.26;97746.69;10449365;28;20119;-55
2023/08/16 22:55:03;;;;;;;26.98;22.63;;;;;;;20.61;87.75;97759.91;10449185;28;20063;-55
2023/08/16 23:00:03;;;;;;;26.17;22.85;;;;;;;20.49;89.03;97758.63;10449383;28;20545;-55